sensor_id;sensor_type;location;lat;lon;timestamp;P1;durP1;ratioP1;P2;durP2;ratioP2
59970;SDS011;45825;45.434;9.116;2022-12-31T00:02:15;67.88;;;39.35;;
59970;SDS011;45825;45.434;9.116;2022-12-31T00:04:40;61.00;;;37.53;;
59970;SDS011;45825;45.434;9.116;2022-12-31T00:07:06;63.70;;;37.83;;
59970;SDS011;45825;45.434;9.116;2022-12-31T00:09:31;69.15;;;39.47;;
59970;SDS011;45825;45.434;9.116;2022-12-31T00:11:56;65.57;;;41.15;;
59970;SDS011;45825;45.434;9.116;2022-12-31T00:14:21;64.13;;;38.85;;
59970;SDS011;45825;45.434;9.116;2022-12-31T00:16:47;60.55;;;38.10;;
59970;SDS011;45825;45.434;9.116;2022-12-31T00:19:12;61.30;;;38.67;;
59970;SDS011;45825;45.434;9.116;2022-12-31T00:21:37;63.35;;;38.78;;
59970;SDS011;45825;45.434;9.116;2022-12-31T00:24:03;60.65;;;36.85;;
59970;SDS011;45825;45.434;9.116;2022-12-31T00:26:30;57.25;;;36.33;;
59970;SDS011;45825;45.434;9.116;2022-12-31T00:28:57;56.42;;;37.10;;
59970;SDS011;45825;45.434;9.116;2022-12-31T00:31:25;62.65;;;39.22;;
59970;SDS011;45825;45.434;9.116;2022-12-31T00:33:54;61.85;;;38.00;;
59970;SDS011;45825;45.434;9.116;2022-12-31T00:36:21;60.70;;;38.50;;
59970;SDS011;45825;45.434;9.116;2022-12-31T00:38:49;59.10;;;37.30;;
59970;SDS011;45825;45.434;9.116;2022-12-31T00:41:16;59.65;;;37.88;;
59970;SDS011;45825;45.434;9.116;2022-12-31T00:43:42;60.10;;;39.15;;
59970;SDS011;45825;45.434;9.116;2022-12-31T00:46:09;64.57;;;38.47;;
59970;SDS011;45825;45.434;9.116;2022-12-31T00:48:35;61.90;;;36.53;;
59970;SDS011;45825;45.434;9.116;2022-12-31T00:51:02;60.47;;;37.78;;
59970;SDS011;45825;45.434;9.116;2022-12-31T00:53:29;65.53;;;38.38;;
59970;SDS011;45825;45.434;9.116;2022-12-31T00:55:58;61.45;;;37.95;;
59970;SDS011;45825;45.434;9.116;2022-12-31T00:58:25;62.92;;;38.15;;
59970;SDS011;45825;45.434;9.116;2022-12-31T01:00:50;63.72;;;37.63;;
59970;SDS011;45825;45.434;9.116;2022-12-31T01:03:15;57.92;;;36.08;;
59970;SDS011;45825;45.434;9.116;2022-12-31T01:05:41;59.17;;;37.35;;
59970;SDS011;45825;45.434;9.116;2022-12-31T01:08:06;56.72;;;35.55;;
59970;SDS011;45825;45.434;9.116;2022-12-31T01:10:31;63.17;;;36.95;;
59970;SDS011;45825;45.434;9.116;2022-12-31T01:13:15;55.58;;;37.50;;
59970;SDS011;45825;45.434;9.116;2022-12-31T01:15:40;57.50;;;37.85;;
59970;SDS011;45825;45.434;9.116;2022-12-31T01:18:06;57.47;;;37.17;;
59970;SDS011;45825;45.434;9.116;2022-12-31T01:20:39;58.13;;;38.10;;
59970;SDS011;45825;45.434;9.116;2022-12-31T01:23:06;54.35;;;35.17;;
59970;SDS011;45825;45.434;9.116;2022-12-31T01:25:33;56.90;;;36.42;;
59970;SDS011;45825;45.434;9.116;2022-12-31T01:28:00;62.17;;;38.08;;
59970;SDS011;45825;45.434;9.116;2022-12-31T01:30:25;59.40;;;36.72;;
59970;SDS011;45825;45.434;9.116;2022-12-31T01:32:51;60.90;;;37.38;;
59970;SDS011;45825;45.434;9.116;2022-12-31T01:35:16;54.40;;;35.28;;
59970;SDS011;45825;45.434;9.116;2022-12-31T01:37:41;55.80;;;35.40;;
59970;SDS011;45825;45.434;9.116;2022-12-31T01:40:07;55.65;;;34.05;;
59970;SDS011;45825;45.434;9.116;2022-12-31T01:42:32;49.97;;;33.92;;
59970;SDS011;45825;45.434;9.116;2022-12-31T01:44:58;52.60;;;33.50;;
59970;SDS011;45825;45.434;9.116;2022-12-31T01:47:31;56.15;;;34.35;;
59970;SDS011;45825;45.434;9.116;2022-12-31T01:50:12;52.08;;;34.55;;
59970;SDS011;45825;45.434;9.116;2022-12-31T01:52:41;55.47;;;34.45;;
59970;SDS011;45825;45.434;9.116;2022-12-31T01:57:35;50.90;;;33.20;;
59970;SDS011;45825;45.434;9.116;2022-12-31T02:00:02;52.53;;;34.33;;
59970;SDS011;45825;45.434;9.116;2022-12-31T02:02:29;52.17;;;33.10;;
59970;SDS011;45825;45.434;9.116;2022-12-31T02:04:56;57.67;;;35.03;;
59970;SDS011;45825;45.434;9.116;2022-12-31T02:07:25;51.38;;;34.03;;
59970;SDS011;45825;45.434;9.116;2022-12-31T02:09:50;48.45;;;33.17;;
59970;SDS011;45825;45.434;9.116;2022-12-31T02:12:16;47.72;;;32.38;;
59970;SDS011;45825;45.434;9.116;2022-12-31T02:14:42;55.38;;;33.97;;
59970;SDS011;45825;45.434;9.116;2022-12-31T02:19:55;48.38;;;32.38;;
59970;SDS011;45825;45.434;9.116;2022-12-31T02:22:58;57.75;;;33.88;;
59970;SDS011;45825;45.434;9.116;2022-12-31T02:30:57;49.67;;;33.17;;
59970;SDS011;45825;45.434;9.116;2022-12-31T02:33:37;49.15;;;33.50;;
59970;SDS011;45825;45.434;9.116;2022-12-31T02:36:09;49.83;;;33.05;;
59970;SDS011;45825;45.434;9.116;2022-12-31T02:38:42;52.13;;;34.70;;
59970;SDS011;45825;45.434;9.116;2022-12-31T02:41:11;49.05;;;32.72;;
59970;SDS011;45825;45.434;9.116;2022-12-31T02:43:57;49.92;;;32.20;;
59970;SDS011;45825;45.434;9.116;2022-12-31T02:46:31;51.53;;;33.50;;
59970;SDS011;45825;45.434;9.116;2022-12-31T02:49:21;47.50;;;31.45;;
59970;SDS011;45825;45.434;9.116;2022-12-31T02:54:30;51.45;;;33.90;;
59970;SDS011;45825;45.434;9.116;2022-12-31T02:57:09;47.50;;;32.13;;
59970;SDS011;45825;45.434;9.116;2022-12-31T03:00:03;47.00;;;32.65;;
59970;SDS011;45825;45.434;9.116;2022-12-31T03:02:53;50.85;;;33.35;;
59970;SDS011;45825;45.434;9.116;2022-12-31T03:05:20;53.67;;;33.47;;
59970;SDS011;45825;45.434;9.116;2022-12-31T03:07:49;50.50;;;33.33;;
59970;SDS011;45825;45.434;9.116;2022-12-31T03:10:15;49.95;;;33.22;;
59970;SDS011;45825;45.434;9.116;2022-12-31T03:12:41;46.50;;;32.13;;
59970;SDS011;45825;45.434;9.116;2022-12-31T03:15:15;49.95;;;32.72;;
59970;SDS011;45825;45.434;9.116;2022-12-31T03:17:52;48.55;;;32.72;;
59970;SDS011;45825;45.434;9.116;2022-12-31T03:20:27;45.58;;;31.17;;
59970;SDS011;45825;45.434;9.116;2022-12-31T03:23:15;42.45;;;29.75;;
59970;SDS011;45825;45.434;9.116;2022-12-31T03:25:46;45.15;;;29.65;;
59970;SDS011;45825;45.434;9.116;2022-12-31T03:28:13;46.42;;;31.38;;
59970;SDS011;45825;45.434;9.116;2022-12-31T03:30:42;46.15;;;30.80;;
59970;SDS011;45825;45.434;9.116;2022-12-31T03:33:09;43.00;;;31.17;;
59970;SDS011;45825;45.434;9.116;2022-12-31T03:35:35;47.20;;;30.50;;
59970;SDS011;45825;45.434;9.116;2022-12-31T03:38:03;45.13;;;30.65;;
59970;SDS011;45825;45.434;9.116;2022-12-31T03:40:29;42.08;;;29.83;;
59970;SDS011;45825;45.434;9.116;2022-12-31T03:42:56;48.70;;;29.65;;
59970;SDS011;45825;45.434;9.116;2022-12-31T03:45:21;41.28;;;29.63;;
59970;SDS011;45825;45.434;9.116;2022-12-31T03:47:47;42.88;;;29.98;;
59970;SDS011;45825;45.434;9.116;2022-12-31T03:50:13;42.40;;;29.55;;
59970;SDS011;45825;45.434;9.116;2022-12-31T03:52:40;46.00;;;29.75;;
59970;SDS011;45825;45.434;9.116;2022-12-31T03:55:06;44.10;;;29.13;;
59970;SDS011;45825;45.434;9.116;2022-12-31T03:57:33;43.78;;;29.30;;
59970;SDS011;45825;45.434;9.116;2022-12-31T03:59:58;41.92;;;28.23;;
59970;SDS011;45825;45.434;9.116;2022-12-31T04:02:24;44.17;;;31.25;;
59970;SDS011;45825;45.434;9.116;2022-12-31T04:04:50;41.17;;;28.70;;
59970;SDS011;45825;45.434;9.116;2022-12-31T04:07:15;44.28;;;30.15;;
59970;SDS011;45825;45.434;9.116;2022-12-31T04:09:40;41.88;;;29.35;;
59970;SDS011;45825;45.434;9.116;2022-12-31T04:12:06;42.67;;;28.52;;
59970;SDS011;45825;45.434;9.116;2022-12-31T04:14:32;45.50;;;30.08;;
59970;SDS011;45825;45.434;9.116;2022-12-31T04:16:57;50.67;;;32.40;;
59970;SDS011;45825;45.434;9.116;2022-12-31T04:19:22;44.78;;;30.98;;
59970;SDS011;45825;45.434;9.116;2022-12-31T04:21:47;46.58;;;31.20;;
59970;SDS011;45825;45.434;9.116;2022-12-31T04:24:13;46.78;;;29.90;;
59970;SDS011;45825;45.434;9.116;2022-12-31T04:26:38;46.17;;;31.15;;
59970;SDS011;45825;45.434;9.116;2022-12-31T04:29:04;46.33;;;30.40;;
59970;SDS011;45825;45.434;9.116;2022-12-31T04:31:30;46.33;;;30.60;;
59970;SDS011;45825;45.434;9.116;2022-12-31T04:33:55;43.65;;;28.92;;
59970;SDS011;45825;45.434;9.116;2022-12-31T04:36:21;41.70;;;29.40;;
59970;SDS011;45825;45.434;9.116;2022-12-31T04:38:46;42.90;;;29.85;;
59970;SDS011;45825;45.434;9.116;2022-12-31T04:41:11;42.53;;;29.70;;
59970;SDS011;45825;45.434;9.116;2022-12-31T04:43:52;46.28;;;30.52;;
59970;SDS011;45825;45.434;9.116;2022-12-31T04:46:21;43.92;;;29.50;;
59970;SDS011;45825;45.434;9.116;2022-12-31T04:48:48;42.20;;;30.50;;
59970;SDS011;45825;45.434;9.116;2022-12-31T04:51:14;43.50;;;29.83;;
59970;SDS011;45825;45.434;9.116;2022-12-31T04:53:39;44.33;;;30.33;;
59970;SDS011;45825;45.434;9.116;2022-12-31T04:56:06;43.83;;;29.83;;
59970;SDS011;45825;45.434;9.116;2022-12-31T04:58:31;42.33;;;29.20;;
59970;SDS011;45825;45.434;9.116;2022-12-31T05:00:57;42.42;;;29.77;;
59970;SDS011;45825;45.434;9.116;2022-12-31T05:03:23;42.53;;;28.92;;
59970;SDS011;45825;45.434;9.116;2022-12-31T05:05:50;40.67;;;29.38;;
59970;SDS011;45825;45.434;9.116;2022-12-31T05:08:16;41.92;;;28.70;;
59970;SDS011;45825;45.434;9.116;2022-12-31T05:10:45;37.78;;;27.75;;
59970;SDS011;45825;45.434;9.116;2022-12-31T05:13:11;40.88;;;28.85;;
59970;SDS011;45825;45.434;9.116;2022-12-31T05:15:38;46.40;;;29.45;;
59970;SDS011;45825;45.434;9.116;2022-12-31T05:18:04;40.22;;;27.55;;
59970;SDS011;45825;45.434;9.116;2022-12-31T05:20:29;40.90;;;28.30;;
59970;SDS011;45825;45.434;9.116;2022-12-31T05:22:55;44.58;;;28.17;;
59970;SDS011;45825;45.434;9.116;2022-12-31T05:25:20;41.22;;;28.10;;
59970;SDS011;45825;45.434;9.116;2022-12-31T05:27:45;42.85;;;27.65;;
59970;SDS011;45825;45.434;9.116;2022-12-31T05:30:11;42.35;;;28.10;;
59970;SDS011;45825;45.434;9.116;2022-12-31T05:32:37;40.50;;;27.77;;
59970;SDS011;45825;45.434;9.116;2022-12-31T05:35:02;40.10;;;28.23;;
59970;SDS011;45825;45.434;9.116;2022-12-31T05:37:28;38.53;;;27.65;;
59970;SDS011;45825;45.434;9.116;2022-12-31T05:39:55;42.45;;;28.60;;
59970;SDS011;45825;45.434;9.116;2022-12-31T05:42:21;40.45;;;28.23;;
59970;SDS011;45825;45.434;9.116;2022-12-31T05:44:46;40.22;;;28.77;;
59970;SDS011;45825;45.434;9.116;2022-12-31T05:47:12;40.78;;;28.02;;
59970;SDS011;45825;45.434;9.116;2022-12-31T05:49:38;42.58;;;27.92;;
59970;SDS011;45825;45.434;9.116;2022-12-31T05:52:03;38.70;;;27.42;;
59970;SDS011;45825;45.434;9.116;2022-12-31T05:54:29;39.35;;;27.58;;
59970;SDS011;45825;45.434;9.116;2022-12-31T05:56:54;39.67;;;27.63;;
59970;SDS011;45825;45.434;9.116;2022-12-31T05:59:20;39.50;;;27.25;;
59970;SDS011;45825;45.434;9.116;2022-12-31T06:01:45;41.80;;;27.88;;
59970;SDS011;45825;45.434;9.116;2022-12-31T06:04:10;41.53;;;28.88;;
59970;SDS011;45825;45.434;9.116;2022-12-31T06:06:36;40.40;;;27.90;;
59970;SDS011;45825;45.434;9.116;2022-12-31T06:09:01;40.65;;;28.50;;
59970;SDS011;45825;45.434;9.116;2022-12-31T06:11:27;41.33;;;27.98;;
59970;SDS011;45825;45.434;9.116;2022-12-31T06:13:52;41.65;;;29.25;;
59970;SDS011;45825;45.434;9.116;2022-12-31T06:16:17;43.05;;;29.63;;
59970;SDS011;45825;45.434;9.116;2022-12-31T06:18:42;44.50;;;28.27;;
59970;SDS011;45825;45.434;9.116;2022-12-31T06:21:10;40.25;;;27.63;;
59970;SDS011;45825;45.434;9.116;2022-12-31T06:23:36;40.63;;;29.02;;
59970;SDS011;45825;45.434;9.116;2022-12-31T06:26:02;43.28;;;28.77;;
59970;SDS011;45825;45.434;9.116;2022-12-31T06:28:28;41.00;;;27.23;;
59970;SDS011;45825;45.434;9.116;2022-12-31T06:31:01;43.28;;;30.17;;
59970;SDS011;45825;45.434;9.116;2022-12-31T06:33:30;41.53;;;28.13;;
59970;SDS011;45825;45.434;9.116;2022-12-31T06:35:56;40.53;;;27.45;;
59970;SDS011;45825;45.434;9.116;2022-12-31T06:38:23;41.78;;;29.42;;
59970;SDS011;45825;45.434;9.116;2022-12-31T06:40:50;44.85;;;28.63;;
59970;SDS011;45825;45.434;9.116;2022-12-31T06:43:15;42.50;;;29.98;;
59970;SDS011;45825;45.434;9.116;2022-12-31T06:45:40;43.55;;;29.65;;
59970;SDS011;45825;45.434;9.116;2022-12-31T06:48:06;42.50;;;28.25;;
59970;SDS011;45825;45.434;9.116;2022-12-31T06:50:32;40.83;;;27.85;;
59970;SDS011;45825;45.434;9.116;2022-12-31T06:52:57;44.25;;;28.73;;
59970;SDS011;45825;45.434;9.116;2022-12-31T06:55:23;43.65;;;29.73;;
59970;SDS011;45825;45.434;9.116;2022-12-31T06:57:48;38.38;;;26.65;;
59970;SDS011;45825;45.434;9.116;2022-12-31T07:00:14;37.47;;;26.58;;
59970;SDS011;45825;45.434;9.116;2022-12-31T07:11:01;40.80;;;28.75;;
59970;SDS011;45825;45.434;9.116;2022-12-31T16:09:17;58.80;;;41.63;;
59970;SDS011;45825;45.434;9.116;2022-12-31T16:11:46;61.45;;;43.08;;
59970;SDS011;45825;45.434;9.116;2022-12-31T16:14:17;63.17;;;45.10;;
59970;SDS011;45825;45.434;9.116;2022-12-31T16:16:56;58.30;;;43.00;;
59970;SDS011;45825;45.434;9.116;2022-12-31T16:19:44;60.53;;;43.35;;
59970;SDS011;45825;45.434;9.116;2022-12-31T16:22:13;59.85;;;43.50;;
59970;SDS011;45825;45.434;9.116;2022-12-31T16:24:40;58.27;;;43.37;;
59970;SDS011;45825;45.434;9.116;2022-12-31T16:27:12;60.85;;;46.30;;
59970;SDS011;45825;45.434;9.116;2022-12-31T16:29:41;61.42;;;46.97;;
59970;SDS011;45825;45.434;9.116;2022-12-31T16:32:13;63.58;;;46.83;;
59970;SDS011;45825;45.434;9.116;2022-12-31T16:34:40;66.78;;;48.33;;
59970;SDS011;45825;45.434;9.116;2022-12-31T16:37:13;63.55;;;50.78;;
59970;SDS011;45825;45.434;9.116;2022-12-31T16:40:23;67.55;;;51.42;;
59970;SDS011;45825;45.434;9.116;2022-12-31T16:42:40;69.13;;;51.83;;
59970;SDS011;45825;45.434;9.116;2022-12-31T16:45:16;74.50;;;50.97;;
59970;SDS011;45825;45.434;9.116;2022-12-31T16:47:49;67.45;;;51.72;;
59970;SDS011;45825;45.434;9.116;2022-12-31T16:50:16;69.20;;;50.88;;
59970;SDS011;45825;45.434;9.116;2022-12-31T16:52:45;69.90;;;50.30;;
59970;SDS011;45825;45.434;9.116;2022-12-31T16:55:22;66.55;;;48.67;;
59970;SDS011;45825;45.434;9.116;2022-12-31T16:57:51;73.28;;;53.72;;
59970;SDS011;45825;45.434;9.116;2022-12-31T17:00:19;65.95;;;52.88;;
59970;SDS011;45825;45.434;9.116;2022-12-31T17:03:09;66.35;;;53.08;;
59970;SDS011;45825;45.434;9.116;2022-12-31T17:06:02;71.45;;;53.13;;
59970;SDS011;45825;45.434;9.116;2022-12-31T17:08:49;65.93;;;50.88;;
59970;SDS011;45825;45.434;9.116;2022-12-31T17:13:55;71.10;;;52.70;;
59970;SDS011;45825;45.434;9.116;2022-12-31T17:16:24;68.88;;;49.38;;
59970;SDS011;45825;45.434;9.116;2022-12-31T17:18:50;65.85;;;48.85;;
59970;SDS011;45825;45.434;9.116;2022-12-31T17:21:16;69.38;;;49.58;;
59970;SDS011;45825;45.434;9.116;2022-12-31T17:23:42;66.60;;;48.03;;
59970;SDS011;45825;45.434;9.116;2022-12-31T17:26:21;65.45;;;47.50;;
59970;SDS011;45825;45.434;9.116;2022-12-31T17:28:51;65.22;;;47.17;;
59970;SDS011;45825;45.434;9.116;2022-12-31T17:31:35;68.93;;;49.70;;
59970;SDS011;45825;45.434;9.116;2022-12-31T17:34:03;71.90;;;52.05;;
59970;SDS011;45825;45.434;9.116;2022-12-31T17:42:09;63.97;;;47.20;;
59970;SDS011;45825;45.434;9.116;2022-12-31T17:44:37;63.97;;;47.00;;
59970;SDS011;45825;45.434;9.116;2022-12-31T17:47:05;64.05;;;44.10;;
59970;SDS011;45825;45.434;9.116;2022-12-31T17:49:32;56.60;;;42.55;;
59970;SDS011;45825;45.434;9.116;2022-12-31T17:52:00;55.97;;;43.08;;
59970;SDS011;45825;45.434;9.116;2022-12-31T17:54:25;55.38;;;40.05;;
59970;SDS011;45825;45.434;9.116;2022-12-31T17:56:50;55.20;;;41.80;;
59970;SDS011;45825;45.434;9.116;2022-12-31T17:59:17;54.72;;;42.83;;
59970;SDS011;45825;45.434;9.116;2022-12-31T18:01:46;56.97;;;41.25;;
59970;SDS011;45825;45.434;9.116;2022-12-31T18:04:13;55.13;;;40.67;;
59970;SDS011;45825;45.434;9.116;2022-12-31T18:06:40;56.50;;;42.05;;
59970;SDS011;45825;45.434;9.116;2022-12-31T18:09:05;58.28;;;41.92;;
59970;SDS011;45825;45.434;9.116;2022-12-31T18:11:31;60.53;;;43.17;;
59970;SDS011;45825;45.434;9.116;2022-12-31T18:13:56;55.20;;;40.55;;
59970;SDS011;45825;45.434;9.116;2022-12-31T18:16:22;54.78;;;41.28;;
59970;SDS011;45825;45.434;9.116;2022-12-31T18:18:47;56.67;;;42.58;;
59970;SDS011;45825;45.434;9.116;2022-12-31T18:21:26;57.35;;;41.40;;
59970;SDS011;45825;45.434;9.116;2022-12-31T18:23:54;56.63;;;42.10;;
59970;SDS011;45825;45.434;9.116;2022-12-31T18:26:21;59.45;;;41.30;;
59970;SDS011;45825;45.434;9.116;2022-12-31T18:28:48;55.15;;;40.58;;
59970;SDS011;45825;45.434;9.116;2022-12-31T18:31:21;59.72;;;40.65;;
59970;SDS011;45825;45.434;9.116;2022-12-31T18:33:48;58.78;;;43.90;;
59970;SDS011;45825;45.434;9.116;2022-12-31T18:36:15;57.60;;;42.53;;
59970;SDS011;45825;45.434;9.116;2022-12-31T18:38:42;59.53;;;42.88;;
59970;SDS011;45825;45.434;9.116;2022-12-31T18:41:14;59.17;;;43.28;;
59970;SDS011;45825;45.434;9.116;2022-12-31T18:43:42;54.40;;;40.90;;
59970;SDS011;45825;45.434;9.116;2022-12-31T18:46:10;56.00;;;42.17;;
59970;SDS011;45825;45.434;9.116;2022-12-31T18:48:37;57.50;;;43.38;;
59970;SDS011;45825;45.434;9.116;2022-12-31T18:51:05;57.33;;;44.03;;
59970;SDS011;45825;45.434;9.116;2022-12-31T18:53:31;56.60;;;42.65;;
59970;SDS011;45825;45.434;9.116;2022-12-31T18:55:56;57.83;;;42.92;;
59970;SDS011;45825;45.434;9.116;2022-12-31T18:58:22;53.83;;;42.22;;
59970;SDS011;45825;45.434;9.116;2022-12-31T19:00:48;55.42;;;43.10;;
59970;SDS011;45825;45.434;9.116;2022-12-31T19:03:15;63.92;;;47.53;;
59970;SDS011;45825;45.434;9.116;2022-12-31T19:05:42;58.28;;;43.50;;
59970;SDS011;45825;45.434;9.116;2022-12-31T19:08:08;61.45;;;45.28;;
59970;SDS011;45825;45.434;9.116;2022-12-31T19:10:33;59.88;;;45.03;;
59970;SDS011;45825;45.434;9.116;2022-12-31T19:12:59;59.53;;;44.88;;
59970;SDS011;45825;45.434;9.116;2022-12-31T19:15:28;63.38;;;45.97;;
59970;SDS011;45825;45.434;9.116;2022-12-31T19:17:57;59.67;;;45.63;;
59970;SDS011;45825;45.434;9.116;2022-12-31T19:20:24;60.20;;;45.00;;
59970;SDS011;45825;45.434;9.116;2022-12-31T19:22:49;60.15;;;44.72;;
59970;SDS011;45825;45.434;9.116;2022-12-31T19:25:25;58.33;;;45.28;;
59970;SDS011;45825;45.434;9.116;2022-12-31T19:27:58;62.17;;;45.33;;
59970;SDS011;45825;45.434;9.116;2022-12-31T19:30:26;71.35;;;52.50;;
59970;SDS011;45825;45.434;9.116;2022-12-31T19:32:55;71.13;;;51.33;;
59970;SDS011;45825;45.434;9.116;2022-12-31T19:35:21;61.95;;;46.28;;
59970;SDS011;45825;45.434;9.116;2022-12-31T19:37:48;142.90;;;127.25;;
59970;SDS011;45825;45.434;9.116;2022-12-31T19:40:16;152.25;;;135.45;;
59970;SDS011;45825;45.434;9.116;2022-12-31T19:42:43;80.68;;;61.38;;
59970;SDS011;45825;45.434;9.116;2022-12-31T19:45:13;66.97;;;49.80;;
59970;SDS011;45825;45.434;9.116;2022-12-31T19:47:40;64.27;;;47.53;;
59970;SDS011;45825;45.434;9.116;2022-12-31T19:50:05;61.30;;;45.75;;
59970;SDS011;45825;45.434;9.116;2022-12-31T19:52:31;62.75;;;46.15;;
59970;SDS011;45825;45.434;9.116;2022-12-31T19:54:56;62.13;;;46.20;;
59970;SDS011;45825;45.434;9.116;2022-12-31T19:57:21;60.78;;;46.53;;
59970;SDS011;45825;45.434;9.116;2022-12-31T19:59:47;62.22;;;45.70;;
59970;SDS011;45825;45.434;9.116;2022-12-31T20:02:12;59.30;;;44.95;;
59970;SDS011;45825;45.434;9.116;2022-12-31T20:04:37;63.17;;;46.67;;
59970;SDS011;45825;45.434;9.116;2022-12-31T20:07:03;62.05;;;45.45;;
59970;SDS011;45825;45.434;9.116;2022-12-31T20:09:28;62.00;;;47.03;;
59970;SDS011;45825;45.434;9.116;2022-12-31T20:11:53;62.55;;;45.17;;
59970;SDS011;45825;45.434;9.116;2022-12-31T20:14:18;60.13;;;45.28;;
59970;SDS011;45825;45.434;9.116;2022-12-31T20:16:44;58.97;;;43.90;;
59970;SDS011;45825;45.434;9.116;2022-12-31T20:19:09;59.45;;;46.08;;
59970;SDS011;45825;45.434;9.116;2022-12-31T20:21:35;60.30;;;46.05;;
59970;SDS011;45825;45.434;9.116;2022-12-31T20:24:00;59.67;;;44.63;;
59970;SDS011;45825;45.434;9.116;2022-12-31T20:26:25;62.10;;;47.67;;
59970;SDS011;45825;45.434;9.116;2022-12-31T20:28:51;60.30;;;45.95;;
59970;SDS011;45825;45.434;9.116;2022-12-31T20:31:19;63.63;;;47.90;;
59970;SDS011;45825;45.434;9.116;2022-12-31T20:33:48;62.70;;;47.10;;
59970;SDS011;45825;45.434;9.116;2022-12-31T20:36:14;60.75;;;46.40;;
59970;SDS011;45825;45.434;9.116;2022-12-31T20:38:41;59.10;;;44.72;;
59970;SDS011;45825;45.434;9.116;2022-12-31T20:41:08;59.40;;;46.05;;
59970;SDS011;45825;45.434;9.116;2022-12-31T20:43:35;59.60;;;45.08;;
59970;SDS011;45825;45.434;9.116;2022-12-31T20:46:04;57.95;;;46.08;;
59970;SDS011;45825;45.434;9.116;2022-12-31T20:48:31;58.70;;;44.83;;
59970;SDS011;45825;45.434;9.116;2022-12-31T20:50:56;57.80;;;44.58;;
59970;SDS011;45825;45.434;9.116;2022-12-31T20:53:22;56.38;;;43.85;;
59970;SDS011;45825;45.434;9.116;2022-12-31T20:55:48;55.33;;;42.70;;
59970;SDS011;45825;45.434;9.116;2022-12-31T20:58:13;55.63;;;42.97;;
59970;SDS011;45825;45.434;9.116;2022-12-31T21:00:39;52.95;;;41.72;;
59970;SDS011;45825;45.434;9.116;2022-12-31T21:03:04;55.72;;;42.45;;
59970;SDS011;45825;45.434;9.116;2022-12-31T21:05:29;54.65;;;42.72;;
59970;SDS011;45825;45.434;9.116;2022-12-31T21:07:55;55.65;;;42.00;;
59970;SDS011;45825;45.434;9.116;2022-12-31T21:10:20;56.35;;;41.70;;
59970;SDS011;45825;45.434;9.116;2022-12-31T21:12:45;52.53;;;41.25;;
59970;SDS011;45825;45.434;9.116;2022-12-31T21:15:17;56.15;;;41.40;;
59970;SDS011;45825;45.434;9.116;2022-12-31T21:17:43;55.10;;;42.88;;
59970;SDS011;45825;45.434;9.116;2022-12-31T21:20:09;55.38;;;41.13;;
59970;SDS011;45825;45.434;9.116;2022-12-31T21:22:35;53.28;;;41.13;;
59970;SDS011;45825;45.434;9.116;2022-12-31T21:25:00;58.30;;;41.65;;
59970;SDS011;45825;45.434;9.116;2022-12-31T21:27:27;70.47;;;52.72;;
59970;SDS011;45825;45.434;9.116;2022-12-31T21:29:53;76.82;;;54.22;;
59970;SDS011;45825;45.434;9.116;2022-12-31T21:32:19;76.65;;;55.42;;
59970;SDS011;45825;45.434;9.116;2022-12-31T21:34:44;67.53;;;49.40;;
59970;SDS011;45825;45.434;9.116;2022-12-31T21:37:09;64.55;;;47.97;;
59970;SDS011;45825;45.434;9.116;2022-12-31T21:39:35;86.38;;;61.95;;
59970;SDS011;45825;45.434;9.116;2022-12-31T21:42:00;68.20;;;49.97;;
59970;SDS011;45825;45.434;9.116;2022-12-31T21:44:25;67.25;;;47.10;;
59970;SDS011;45825;45.434;9.116;2022-12-31T21:46:52;60.53;;;44.80;;
59970;SDS011;45825;45.434;9.116;2022-12-31T21:49:20;70.22;;;50.08;;
59970;SDS011;45825;45.434;9.116;2022-12-31T21:51:45;68.10;;;48.15;;
59970;SDS011;45825;45.434;9.116;2022-12-31T21:54:29;64.57;;;46.58;;
59970;SDS011;45825;45.434;9.116;2022-12-31T21:57:13;62.00;;;44.72;;
59970;SDS011;45825;45.434;9.116;2022-12-31T21:59:38;85.43;;;58.65;;
59970;SDS011;45825;45.434;9.116;2022-12-31T22:02:22;113.45;;;84.95;;
59970;SDS011;45825;45.434;9.116;2022-12-31T22:05:07;84.75;;;60.28;;
59970;SDS011;45825;45.434;9.116;2022-12-31T22:07:32;88.10;;;62.55;;
59970;SDS011;45825;45.434;9.116;2022-12-31T22:09:59;88.38;;;62.53;;
59970;SDS011;45825;45.434;9.116;2022-12-31T22:12:24;78.88;;;56.88;;
59970;SDS011;45825;45.434;9.116;2022-12-31T22:14:49;80.78;;;55.95;;
59970;SDS011;45825;45.434;9.116;2022-12-31T22:17:15;75.05;;;54.83;;
59970;SDS011;45825;45.434;9.116;2022-12-31T22:19:40;80.15;;;58.90;;
59970;SDS011;45825;45.434;9.116;2022-12-31T22:22:06;75.97;;;55.72;;
59970;SDS011;45825;45.434;9.116;2022-12-31T22:24:31;85.18;;;60.40;;
59970;SDS011;45825;45.434;9.116;2022-12-31T22:26:56;82.78;;;59.80;;
59970;SDS011;45825;45.434;9.116;2022-12-31T22:29:23;74.57;;;54.10;;
59970;SDS011;45825;45.434;9.116;2022-12-31T22:31:49;71.72;;;53.13;;
59970;SDS011;45825;45.434;9.116;2022-12-31T22:34:15;73.72;;;53.08;;
59970;SDS011;45825;45.434;9.116;2022-12-31T22:36:40;72.00;;;51.22;;
59970;SDS011;45825;45.434;9.116;2022-12-31T22:39:06;68.78;;;51.60;;
59970;SDS011;45825;45.434;9.116;2022-12-31T22:41:31;72.85;;;52.38;;
59970;SDS011;45825;45.434;9.116;2022-12-31T22:43:58;69.55;;;48.97;;
59970;SDS011;45825;45.434;9.116;2022-12-31T22:46:24;70.22;;;51.88;;
59970;SDS011;45825;45.434;9.116;2022-12-31T22:48:52;72.45;;;54.05;;
59970;SDS011;45825;45.434;9.116;2022-12-31T22:51:20;87.18;;;61.75;;
59970;SDS011;45825;45.434;9.116;2022-12-31T22:53:45;84.82;;;59.38;;
59970;SDS011;45825;45.434;9.116;2022-12-31T22:56:13;64.45;;;47.17;;
59970;SDS011;45825;45.434;9.116;2022-12-31T22:58:40;66.30;;;47.80;;
59970;SDS011;45825;45.434;9.116;2022-12-31T23:01:06;66.88;;;50.38;;
59970;SDS011;45825;45.434;9.116;2022-12-31T23:03:38;77.97;;;58.67;;
59970;SDS011;45825;45.434;9.116;2022-12-31T23:06:05;111.82;;;80.18;;
59970;SDS011;45825;45.434;9.116;2022-12-31T23:08:31;118.90;;;81.47;;
59970;SDS011;45825;45.434;9.116;2022-12-31T23:10:56;118.68;;;86.18;;
59970;SDS011;45825;45.434;9.116;2022-12-31T23:13:28;251.20;;;184.43;;
59970;SDS011;45825;45.434;9.116;2022-12-31T23:16:14;237.75;;;173.00;;
59970;SDS011;45825;45.434;9.116;2022-12-31T23:18:58;154.27;;;111.13;;
59970;SDS011;45825;45.434;9.116;2022-12-31T23:21:43;169.70;;;121.80;;
59970;SDS011;45825;45.434;9.116;2022-12-31T23:24:27;168.13;;;123.05;;
59970;SDS011;45825;45.434;9.116;2022-12-31T23:26:56;188.07;;;137.50;;
59970;SDS011;45825;45.434;9.116;2022-12-31T23:29:22;414.52;;;310.40;;
59970;SDS011;45825;45.434;9.116;2022-12-31T23:31:49;266.77;;;189.73;;
59970;SDS011;45825;45.434;9.116;2022-12-31T23:34:14;258.90;;;184.02;;
59970;SDS011;45825;45.434;9.116;2022-12-31T23:36:41;172.75;;;125.82;;
59970;SDS011;45825;45.434;9.116;2022-12-31T23:39:06;166.45;;;121.00;;
59970;SDS011;45825;45.434;9.116;2022-12-31T23:41:32;193.63;;;136.45;;
59970;SDS011;45825;45.434;9.116;2022-12-31T23:43:57;141.15;;;102.35;;
59970;SDS011;45825;45.434;9.116;2022-12-31T23:46:22;160.73;;;114.15;;
59970;SDS011;45825;45.434;9.116;2022-12-31T23:48:48;183.55;;;127.30;;
59970;SDS011;45825;45.434;9.116;2022-12-31T23:51:13;205.32;;;140.57;;
59970;SDS011;45825;45.434;9.116;2022-12-31T23:53:38;225.32;;;152.73;;